createdAt,value
2022-09-07T00:00:23.500Z,1013.56
2022-09-07T00:01:28.399Z,1013.44
2022-09-07T00:02:31.685Z,1013.33
2022-09-07T00:04:08.227Z,1013.22
2022-09-07T00:05:11.869Z,1013.18
2022-09-07T00:06:14.951Z,1013.17
2022-09-07T00:07:49.933Z,1013.18
2022-09-07T00:08:53.151Z,1013.19
2022-09-07T00:09:56.170Z,1013.16
2022-09-07T00:11:31.504Z,1013.15
2022-09-07T00:12:34.750Z,1013.20
2022-09-07T00:13:37.748Z,1013.15
2022-09-07T00:15:12.736Z,1013.15
2022-09-07T00:16:15.999Z,1013.15
2022-09-07T00:17:19.779Z,1012.99
2022-09-07T00:18:57.749Z,1012.94
2022-09-07T00:20:00.808Z,1012.71
2022-09-07T00:21:03.670Z,1012.71
2022-09-07T00:22:38.305Z,1012.70
2022-09-07T00:23:41.466Z,1012.66
2022-09-07T00:24:44.427Z,1012.65
2022-09-07T00:26:23.724Z,1012.61
2022-09-07T00:27:26.805Z,1012.61
2022-09-07T00:28:29.981Z,1012.68
2022-09-07T00:30:05.211Z,1012.72
2022-09-07T00:31:08.856Z,1012.73
2022-09-07T00:32:12.472Z,1012.67
2022-09-07T00:33:47.537Z,1012.66
2022-09-07T00:34:50.511Z,1012.68
2022-09-07T00:35:53.368Z,1012.63
2022-09-07T00:37:28.534Z,1012.58
2022-09-07T00:38:31.839Z,1012.52
2022-09-07T00:39:35.079Z,1012.51
2022-09-07T00:41:10.289Z,1012.63
2022-09-07T00:42:13.173Z,1012.66
2022-09-07T00:43:16.257Z,1012.68
2022-09-07T00:44:51.120Z,1012.73
2022-09-07T00:45:54.172Z,1012.73
2022-09-07T00:46:57.711Z,1012.76
2022-09-07T00:48:32.994Z,1012.75
2022-09-07T00:49:35.964Z,1012.60
2022-09-07T00:50:39.113Z,1012.55
2022-09-07T00:52:13.883Z,1012.55
2022-09-07T00:53:16.822Z,1012.57
2022-09-07T00:54:20.179Z,1012.56
2022-09-07T00:55:55.058Z,1012.65
2022-09-07T00:56:58.356Z,1012.70
2022-09-07T00:58:01.346Z,1012.71
2022-09-07T00:59:36.755Z,1012.80
2022-09-07T01:00:23.253Z,1012.86
2022-09-07T01:01:26.425Z,1012.94
2022-09-07T01:02:30.382Z,1012.99
2022-09-07T01:04:06.441Z,1012.96
2022-09-07T01:05:15.146Z,1012.91
2022-09-07T01:06:18.392Z,1012.90
2022-09-07T01:07:53.737Z,1012.80
2022-09-07T01:08:56.951Z,1012.78
2022-09-07T01:10:00.291Z,1012.76
2022-09-07T01:11:35.306Z,1012.87
2022-09-07T01:12:38.436Z,1012.91
2022-09-07T01:13:41.840Z,1012.88
2022-09-07T01:15:17.004Z,1012.92
2022-09-07T01:16:20.592Z,1012.94
2022-09-07T01:17:24.179Z,1012.92
2022-09-07T01:18:59.583Z,1012.92
2022-09-07T01:20:02.711Z,1012.99
2022-09-07T01:21:06.087Z,1013.00
2022-09-07T01:22:41.545Z,1013.00
2022-09-07T01:23:44.747Z,1012.97
2022-09-07T01:24:47.824Z,1012.96
2022-09-07T01:26:23.145Z,1013.00
2022-09-07T01:27:26.312Z,1013.01
2022-09-07T01:28:29.959Z,1012.97
2022-09-07T01:30:05.416Z,1013.01
2022-09-07T01:31:09.143Z,1013.01
2022-09-07T01:32:12.479Z,1012.99
2022-09-07T01:33:47.921Z,1012.99
2022-09-07T01:34:51.073Z,1012.97
2022-09-07T01:35:54.477Z,1012.96
2022-09-07T01:37:29.768Z,1012.99
2022-09-07T01:38:33.222Z,1012.95
2022-09-07T01:39:36.585Z,1012.93
2022-09-07T01:41:12.240Z,1012.94
2022-09-07T01:42:15.314Z,1012.89
2022-09-07T01:43:18.495Z,1012.90
2022-09-07T01:44:53.770Z,1012.82
2022-09-07T01:45:57.249Z,1012.78
2022-09-07T01:47:00.909Z,1012.83
2022-09-07T01:48:36.511Z,1012.84
2022-09-07T01:49:39.899Z,1012.83
2022-09-07T01:50:43.277Z,1012.80
2022-09-07T01:52:18.883Z,1012.78
2022-09-07T01:53:22.213Z,1012.70
2022-09-07T01:54:25.221Z,1012.65
2022-09-07T01:56:00.726Z,1012.70
2022-09-07T01:57:04.241Z,1012.68
2022-09-07T01:58:07.731Z,1012.67
2022-09-07T01:59:43.199Z,1012.65
2022-09-07T02:00:23.709Z,1012.65
2022-09-07T02:01:27.076Z,1012.63
2022-09-07T02:02:30.569Z,1012.68
2022-09-07T02:04:06.089Z,1012.64
2022-09-07T02:05:08.944Z,1012.64
2022-09-07T02:06:12.094Z,1012.62
2022-09-07T02:07:47.000Z,1012.64
2022-09-07T02:08:50.005Z,1012.60
2022-09-07T02:09:53.007Z,1012.64
2022-09-07T02:11:28.052Z,1012.57
2022-09-07T02:12:30.822Z,1012.57
2022-09-07T02:13:34.021Z,1012.53
2022-09-07T02:15:08.799Z,1012.51
2022-09-07T02:16:12.108Z,1012.51
2022-09-07T02:17:15.403Z,1012.52
2022-09-07T02:18:50.376Z,1012.55
2022-09-07T02:19:53.218Z,1012.57
2022-09-07T02:20:56.280Z,1012.61
2022-09-07T02:22:31.121Z,1012.60
2022-09-07T02:23:34.200Z,1012.61
2022-09-07T02:24:37.193Z,1012.59
2022-09-07T02:26:12.296Z,1012.56
2022-09-07T02:27:15.022Z,1012.58
2022-09-07T02:28:17.976Z,1012.56
2022-09-07T02:29:52.924Z,1012.54
2022-09-07T02:30:56.159Z,1012.59
2022-09-07T02:31:59.326Z,1012.58
2022-09-07T02:33:34.180Z,1012.59
2022-09-07T02:34:37.140Z,1012.61
2022-09-07T02:35:40.175Z,1012.58
2022-09-07T02:37:15.029Z,1012.61
2022-09-07T02:38:17.936Z,1012.60
2022-09-07T02:39:20.877Z,1012.65
2022-09-07T02:40:55.984Z,1012.65
2022-09-07T02:41:58.910Z,1012.65
2022-09-07T02:43:01.971Z,1012.63
2022-09-07T02:44:36.944Z,1012.58
2022-09-07T02:45:39.949Z,1012.59
2022-09-07T02:46:43.393Z,1012.57
2022-09-07T02:48:18.388Z,1012.56
2022-09-07T02:49:21.843Z,1012.56
2022-09-07T02:50:24.712Z,1012.59
2022-09-07T02:51:59.673Z,1012.55
2022-09-07T02:53:02.473Z,1012.61
2022-09-07T02:54:05.361Z,1012.53
2022-09-07T02:55:40.274Z,1012.48
2022-09-07T02:56:43.252Z,1012.42
2022-09-07T02:57:46.318Z,1012.44
2022-09-07T02:59:21.006Z,1012.31
2022-09-07T03:00:23.555Z,1012.33
2022-09-07T03:01:26.881Z,1012.28
2022-09-07T03:02:30.363Z,1012.27
2022-09-07T03:04:05.716Z,1012.25
2022-09-07T03:05:08.808Z,1012.18
2022-09-07T03:06:11.663Z,1012.14
2022-09-07T03:07:50.066Z,1012.13
2022-09-07T03:08:53.258Z,1012.13
2022-09-07T03:09:56.145Z,1012.12
2022-09-07T03:11:31.175Z,1012.08
2022-09-07T03:12:34.103Z,1012.09
2022-09-07T03:13:37.317Z,1012.03
2022-09-07T03:15:12.046Z,1011.91
2022-09-07T03:16:15.458Z,1011.91
2022-09-07T03:17:18.426Z,1011.89
2022-09-07T03:18:53.330Z,1011.87
2022-09-07T03:19:56.287Z,1011.94
2022-09-07T03:20:59.260Z,1011.94
2022-09-07T03:22:34.223Z,1011.93
2022-09-07T03:23:37.115Z,1011.92
2022-09-07T03:24:43.659Z,1011.89
2022-09-07T03:26:18.342Z,1011.88
2022-09-07T03:27:21.253Z,1011.84
2022-09-07T03:28:24.266Z,1011.86
2022-09-07T03:29:59.624Z,1011.85
2022-09-07T03:31:03.049Z,1011.85
2022-09-07T03:32:06.404Z,1011.81
2022-09-07T03:33:41.426Z,1011.81
2022-09-07T03:34:44.496Z,1011.81
2022-09-07T03:35:47.464Z,1011.78
2022-09-07T03:37:22.458Z,1011.77
2022-09-07T03:38:25.503Z,1011.77
2022-09-07T03:39:28.905Z,1011.81
2022-09-07T03:41:04.427Z,1011.79
2022-09-07T03:42:07.275Z,1011.76
2022-09-07T03:43:10.491Z,1011.71
2022-09-07T03:44:45.370Z,1011.66
2022-09-07T03:45:48.567Z,1011.68
2022-09-07T03:46:51.720Z,1011.66
2022-09-07T03:48:26.546Z,1011.66
2022-09-07T03:49:30.167Z,1011.65
2022-09-07T03:50:33.363Z,1011.60
2022-09-07T03:52:08.377Z,1011.63
2022-09-07T03:53:11.241Z,1011.63
2022-09-07T03:54:14.393Z,1011.64
2022-09-07T03:55:49.269Z,1011.64
2022-09-07T03:56:52.317Z,1011.64
2022-09-07T03:57:55.313Z,1011.66
2022-09-07T03:59:30.277Z,1011.71
2022-09-07T04:00:23.356Z,1011.69
2022-09-07T04:01:26.756Z,1011.70
2022-09-07T04:02:30.318Z,1011.70
2022-09-07T04:04:10.044Z,1011.72
2022-09-07T04:05:51.926Z,1011.73
2022-09-07T04:06:55.065Z,1011.69
2022-09-07T04:07:57.998Z,1011.68
2022-09-07T04:09:33.107Z,1011.67
2022-09-07T04:10:36.269Z,1011.66
2022-09-07T04:11:39.155Z,1011.59
2022-09-07T04:13:14.245Z,1011.57
2022-09-07T04:14:17.053Z,1011.62
2022-09-07T04:15:20.092Z,1011.58
2022-09-07T04:16:55.349Z,1011.61
2022-09-07T04:17:58.829Z,1011.61
2022-09-07T04:19:01.869Z,1011.60
2022-09-07T04:20:36.621Z,1011.61
2022-09-07T04:21:40.050Z,1011.66
2022-09-07T04:22:43.100Z,1011.71
2022-09-07T04:24:23.217Z,1011.70
2022-09-07T04:25:26.125Z,1011.67
2022-09-07T04:26:29.020Z,1011.67
2022-09-07T04:28:03.939Z,1011.65
2022-09-07T04:29:06.965Z,1011.67
2022-09-07T04:30:10.048Z,1011.66
2022-09-07T04:31:45.563Z,1011.65
2022-09-07T04:32:48.533Z,1011.64
2022-09-07T04:33:51.651Z,1011.62
2022-09-07T04:35:26.445Z,1011.55
2022-09-07T04:36:29.462Z,1011.57
2022-09-07T04:37:32.602Z,1011.57
2022-09-07T04:39:07.403Z,1011.55
2022-09-07T04:40:10.865Z,1011.54
2022-09-07T04:41:13.818Z,1011.55
2022-09-07T04:42:48.729Z,1011.52
2022-09-07T04:43:51.646Z,1011.48
2022-09-07T04:44:54.725Z,1011.50
2022-09-07T04:46:30.039Z,1011.50
2022-09-07T04:47:33.183Z,1011.49
2022-09-07T04:48:36.333Z,1011.53
2022-09-07T04:50:11.179Z,1011.61
2022-09-07T04:51:17.258Z,1011.57
2022-09-07T04:52:20.208Z,1011.62
2022-09-07T04:53:55.432Z,1011.63
2022-09-07T04:54:58.363Z,1011.76
2022-09-07T04:56:01.513Z,1011.77
2022-09-07T04:57:40.944Z,1011.82
2022-09-07T04:58:43.977Z,1011.86
2022-09-07T04:59:46.881Z,1011.85
2022-09-07T05:00:23.744Z,1011.81
2022-09-07T05:01:26.976Z,1011.81
2022-09-07T05:02:30.692Z,1011.73
2022-09-07T05:04:06.094Z,1011.70
2022-09-07T05:05:14.080Z,1011.77
2022-09-07T05:06:17.244Z,1011.80
2022-09-07T05:07:52.247Z,1011.91
2022-09-07T05:08:55.314Z,1011.91
2022-09-07T05:09:58.135Z,1011.98
2022-09-07T05:11:39.812Z,1011.98
2022-09-07T05:12:42.924Z,1012.00
2022-09-07T05:13:46.117Z,1011.99
2022-09-07T05:15:20.802Z,1012.00
2022-09-07T05:16:23.897Z,1011.98
2022-09-07T05:17:27.200Z,1011.98
2022-09-07T05:19:02.161Z,1011.95
2022-09-07T05:20:05.236Z,1011.94
2022-09-07T05:21:12.095Z,1011.88
2022-09-07T05:22:47.070Z,1011.87
2022-09-07T05:23:50.056Z,1011.84
2022-09-07T05:24:53.005Z,1011.84
2022-09-07T05:26:27.823Z,1011.88
2022-09-07T05:27:30.829Z,1011.86
2022-09-07T05:28:33.939Z,1011.88
2022-09-07T05:32:00.221Z,1011.91
2022-09-07T05:33:03.146Z,1011.90
2022-09-07T05:34:37.369Z,1011.93
2022-09-07T05:36:16.014Z,1011.86
2022-09-07T05:37:19.004Z,1011.90
2022-09-07T05:38:22.315Z,1011.88
2022-09-07T05:39:57.368Z,1011.89
2022-09-07T05:41:00.902Z,1011.91
2022-09-07T05:42:03.900Z,1011.85
2022-09-07T05:45:44.138Z,1011.86
2022-09-07T05:46:47.467Z,1011.86
2022-09-07T05:48:22.218Z,1011.86
2022-09-07T05:49:25.238Z,1011.91
2022-09-07T05:50:28.205Z,1011.92
2022-09-07T05:52:02.903Z,1011.91
2022-09-07T05:53:05.796Z,1011.95
2022-09-07T05:54:08.887Z,1011.92
2022-09-07T05:56:18.427Z,1011.93
2022-09-07T05:57:21.441Z,1011.94
2022-09-07T05:58:24.492Z,1011.98
2022-09-07T05:59:59.923Z,1012.03
2022-09-07T06:00:22.949Z,1012.05
2022-09-07T06:01:26.038Z,1012.04
2022-09-07T06:02:29.754Z,1012.09
2022-09-07T06:04:10.148Z,1012.13
2022-09-07T06:05:13.289Z,1012.14
2022-09-07T06:06:16.553Z,1012.15
2022-09-07T06:08:17.763Z,1012.21
2022-09-07T06:09:20.853Z,1012.22
2022-09-07T06:11:32.308Z,1012.23
2022-09-07T06:13:06.878Z,1012.26
2022-09-07T06:14:09.817Z,1012.23
2022-09-07T06:15:12.917Z,1012.25
2022-09-07T06:16:47.969Z,1012.23
2022-09-07T06:17:51.107Z,1012.18
2022-09-07T06:18:53.850Z,1012.19
2022-09-07T06:20:28.486Z,1012.16
2022-09-07T06:21:31.480Z,1012.21
2022-09-07T06:22:37.030Z,1012.23
2022-09-07T06:24:11.817Z,1012.23
2022-09-07T06:25:14.717Z,1012.28
2022-09-07T06:26:17.686Z,1012.26
2022-09-07T06:27:52.627Z,1012.28
2022-09-07T06:29:03.647Z,1012.32
2022-09-07T06:30:06.630Z,1012.32
2022-09-07T06:32:45.929Z,1012.31
2022-09-07T06:33:49.086Z,1012.34
2022-09-07T06:34:52.072Z,1012.34
2022-09-07T06:36:27.012Z,1012.36
2022-09-07T06:37:29.892Z,1012.36
2022-09-07T06:38:37.474Z,1012.36
2022-09-07T06:40:12.843Z,1012.32
2022-09-07T06:42:06.528Z,1012.34
2022-09-07T06:43:09.487Z,1012.35
2022-09-07T06:44:43.978Z,1012.39
2022-09-07T06:45:47.218Z,1012.39
2022-09-07T06:47:51.381Z,1012.45
2022-09-07T06:49:30.828Z,1012.41
2022-09-07T06:50:33.675Z,1012.41
2022-09-07T06:51:36.642Z,1012.37
2022-09-07T06:53:45.282Z,1012.36
2022-09-07T06:55:48.138Z,1012.35
2022-09-07T06:56:51.086Z,1012.36
2022-09-07T06:58:25.850Z,1012.30
2022-09-07T06:59:34.131Z,1012.35
2022-09-07T07:00:23.644Z,1012.30
2022-09-07T07:01:27.327Z,1012.33
2022-09-07T07:02:30.145Z,1012.37
2022-09-07T07:04:04.910Z,1012.40
2022-09-07T07:05:07.863Z,1012.39
2022-09-07T07:06:10.763Z,1012.40
2022-09-07T07:07:45.940Z,1012.41
2022-09-07T07:08:48.705Z,1012.40
2022-09-07T07:09:51.685Z,1012.35
2022-09-07T07:11:26.347Z,1012.30
2022-09-07T07:13:32.946Z,1012.31
2022-09-07T07:15:07.699Z,1012.33
2022-09-07T07:16:10.820Z,1012.33
2022-09-07T07:17:14.311Z,1012.32
2022-09-07T07:19:12.704Z,1012.41
2022-09-07T07:20:15.696Z,1012.44
2022-09-07T07:21:18.570Z,1012.42
2022-09-07T07:24:08.105Z,1012.42
2022-09-07T07:25:11.214Z,1012.40
2022-09-07T07:26:14.027Z,1012.44
2022-09-07T07:27:49.087Z,1012.43
2022-09-07T07:29:50.559Z,1012.42
2022-09-07T07:30:53.466Z,1012.37
2022-09-07T07:32:34.305Z,1012.41
2022-09-07T07:33:38.283Z,1012.45
2022-09-07T07:34:53.053Z,1012.54
2022-09-07T07:36:28.271Z,1012.56
2022-09-07T07:37:34.339Z,1012.54
2022-09-07T07:42:56.822Z,1012.53
2022-09-07T07:44:00.546Z,1012.50
2022-09-07T07:46:06.983Z,1012.55
2022-09-07T07:47:42.870Z,1012.57
2022-09-07T07:48:45.909Z,1012.57
2022-09-07T07:49:49.647Z,1012.60
2022-09-07T07:54:42.844Z,1012.62
2022-09-07T07:55:55.875Z,1012.60
2022-09-07T07:57:30.916Z,1012.60
2022-09-07T07:58:33.986Z,1012.59
2022-09-07T07:59:37.339Z,1012.59
2022-09-07T08:00:54.181Z,1012.59
2022-09-07T08:01:58.936Z,1012.58
2022-09-07T08:03:03.561Z,1012.59
2022-09-07T08:04:38.314Z,1012.60
2022-09-07T08:05:41.453Z,1012.60
2022-09-07T08:06:44.361Z,1012.60
2022-09-07T08:08:26.627Z,1012.61
2022-09-07T08:09:29.888Z,1012.59
2022-09-07T08:10:32.772Z,1012.55
2022-09-07T08:12:07.408Z,1012.58
2022-09-07T08:13:15.658Z,1012.57
2022-09-07T08:14:19.119Z,1012.61
2022-09-07T08:15:54.232Z,1012.60
2022-09-07T08:16:57.737Z,1012.67
2022-09-07T08:18:00.642Z,1012.67
2022-09-07T08:19:38.826Z,1012.72
2022-09-07T08:20:41.763Z,1012.75
2022-09-07T08:21:44.849Z,1012.78
2022-09-07T08:23:25.955Z,1012.82
2022-09-07T08:24:28.958Z,1012.84
2022-09-07T08:25:31.937Z,1012.84
2022-09-07T08:27:06.896Z,1012.88
2022-09-07T08:28:10.020Z,1012.91
2022-09-07T08:29:13.098Z,1012.90
2022-09-07T08:30:52.818Z,1012.94
2022-09-07T08:31:56.287Z,1012.96
2022-09-07T08:32:59.515Z,1012.95
2022-09-07T08:34:34.426Z,1012.94
2022-09-07T08:35:37.420Z,1013.00
2022-09-07T08:36:40.432Z,1012.99
2022-09-07T08:38:20.439Z,1012.99
2022-09-07T08:39:24.092Z,1013.00
2022-09-07T08:40:27.477Z,1013.00
2022-09-07T08:42:02.397Z,1013.04
2022-09-07T08:43:05.324Z,1013.05
2022-09-07T08:44:08.791Z,1013.05
2022-09-07T08:45:43.975Z,1013.05
2022-09-07T08:46:47.080Z,1013.08
2022-09-07T08:47:50.807Z,1013.05
2022-09-07T08:49:25.842Z,1013.06
2022-09-07T08:50:28.852Z,1013.05
2022-09-07T08:51:35.665Z,1013.08
2022-09-07T08:53:10.411Z,1013.07
2022-09-07T08:54:13.348Z,1013.05
2022-09-07T08:55:16.396Z,1013.11
2022-09-07T08:57:26.449Z,1013.07
2022-09-07T08:58:58.863Z,1013.11
2022-09-07T09:00:23.227Z,1013.11
2022-09-07T09:02:26.277Z,1013.04
2022-09-07T09:06:23.660Z,1013.03
2022-09-07T09:07:59.567Z,1012.97
2022-09-07T09:09:02.374Z,1012.97
2022-09-07T09:10:05.442Z,1012.99
2022-09-07T09:11:40.489Z,1013.03
2022-09-07T09:12:49.014Z,1013.04
2022-09-07T09:13:51.848Z,1013.08
2022-09-07T09:15:27.731Z,1013.10
2022-09-07T09:16:31.272Z,1013.12
2022-09-07T09:17:34.885Z,1013.14
2022-09-07T09:19:12.158Z,1013.15
2022-09-07T09:20:15.171Z,1013.12
2022-09-07T09:21:18.222Z,1013.19
2022-09-07T09:22:53.130Z,1013.17
2022-09-07T09:23:56.232Z,1013.16
2022-09-07T09:24:59.094Z,1013.17
2022-09-07T09:26:34.007Z,1013.17
2022-09-07T09:27:37.192Z,1013.20
2022-09-07T09:28:44.709Z,1013.19
2022-09-07T09:30:19.960Z,1013.16
2022-09-07T09:31:23.297Z,1013.14
2022-09-07T09:32:26.906Z,1013.14
2022-09-07T09:34:01.622Z,1013.14
2022-09-07T09:35:06.547Z,1013.15
2022-09-07T09:36:09.507Z,1013.17
2022-09-07T09:37:44.495Z,1013.16
2022-09-07T09:38:47.408Z,1013.17
2022-09-07T09:39:53.979Z,1013.15
2022-09-07T09:41:32.798Z,1013.14
2022-09-07T09:42:36.006Z,1013.17
2022-09-07T09:43:38.986Z,1013.12
2022-09-07T09:45:13.641Z,1013.11
2022-09-07T09:46:24.828Z,1013.08
2022-09-07T09:47:43.903Z,1013.07
2022-09-07T09:49:19.674Z,1013.05
2022-09-07T09:52:43.946Z,1013.05
2022-09-07T09:53:49.614Z,1013.09
2022-09-07T09:55:46.533Z,1013.10
2022-09-07T09:56:49.554Z,1013.11
2022-09-07T10:00:36.562Z,1013.11
2022-09-07T10:04:00.491Z,1013.04
2022-09-07T10:05:16.550Z,1013.09
2022-09-07T10:06:51.544Z,1013.08
2022-09-07T10:07:54.350Z,1013.06
2022-09-07T10:08:57.139Z,1013.11
2022-09-07T10:10:35.614Z,1013.08
2022-09-07T10:12:16.638Z,1013.07
2022-09-07T10:13:19.656Z,1013.05
2022-09-07T10:14:54.494Z,1013.05
2022-09-07T10:15:57.735Z,1013.04
2022-09-07T10:17:02.016Z,1013.05
2022-09-07T10:18:37.341Z,1013.05
2022-09-07T10:19:40.524Z,1013.01
2022-09-07T10:20:44.607Z,1012.99
2022-09-07T10:22:19.475Z,1012.95
2022-09-07T10:23:22.768Z,1012.94
2022-09-07T10:24:25.796Z,1012.96
2022-09-07T10:26:00.674Z,1012.92
2022-09-07T10:27:03.763Z,1012.92
2022-09-07T10:28:06.821Z,1012.94
2022-09-07T10:30:07.050Z,1012.90
2022-09-07T10:31:14.803Z,1012.92
2022-09-07T10:32:18.256Z,1012.87
2022-09-07T10:34:31.589Z,1012.81
2022-09-07T10:35:34.805Z,1012.83
2022-09-07T10:36:37.744Z,1012.81
2022-09-07T10:38:12.619Z,1012.80
2022-09-07T10:39:16.992Z,1012.80
2022-09-07T10:40:22.147Z,1012.82
2022-09-07T10:41:57.274Z,1012.83
2022-09-07T10:43:30.518Z,1012.84
2022-09-07T10:44:33.586Z,1012.81
2022-09-07T10:46:08.764Z,1012.78
2022-09-07T10:47:43.392Z,1012.77
2022-09-07T10:48:46.269Z,1012.75
2022-09-07T10:50:35.442Z,1012.81
2022-09-07T10:51:38.879Z,1012.78
2022-09-07T10:52:41.921Z,1012.79
2022-09-07T10:55:09.079Z,1012.79
2022-09-07T10:56:12.108Z,1012.77
2022-09-07T10:57:14.939Z,1012.72
2022-09-07T10:59:14.495Z,1012.78
2022-09-07T11:00:23.542Z,1012.73
2022-09-07T11:01:26.662Z,1012.76
2022-09-07T11:02:30.117Z,1012.75
2022-09-07T11:04:37.066Z,1012.74
2022-09-07T11:05:48.348Z,1012.70
2022-09-07T11:06:51.249Z,1012.72
2022-09-07T11:08:32.050Z,1012.72
2022-09-07T11:10:13.930Z,1012.73
2022-09-07T11:11:17.309Z,1012.68
2022-09-07T11:13:30.909Z,1012.68
2022-09-07T11:15:06.394Z,1012.65
2022-09-07T11:16:50.516Z,1012.68
2022-09-07T11:18:26.097Z,1012.72
2022-09-07T11:19:49.068Z,1012.70
2022-09-07T11:20:52.098Z,1012.76
2022-09-07T11:22:54.435Z,1012.74
2022-09-07T11:23:57.494Z,1012.79
2022-09-07T11:25:40.665Z,1012.81
2022-09-07T11:27:16.048Z,1012.77
2022-09-07T11:28:19.105Z,1012.79
2022-09-07T11:29:41.738Z,1012.75
2022-09-07T11:31:16.519Z,1012.77
2022-09-07T11:32:20.011Z,1012.72
2022-09-07T11:33:23.047Z,1012.68
2022-09-07T11:35:22.628Z,1012.72
2022-09-07T11:36:25.578Z,1012.75
2022-09-07T11:37:28.849Z,1012.72
2022-09-07T11:39:03.600Z,1012.73
2022-09-07T11:40:06.916Z,1012.73
2022-09-07T11:41:10.206Z,1012.75
2022-09-07T11:42:55.820Z,1012.77
2022-09-07T11:44:03.089Z,1012.71
2022-09-07T11:45:06.041Z,1012.72
2022-09-07T11:46:41.655Z,1012.70
2022-09-07T11:47:44.905Z,1012.67
2022-09-07T11:48:48.647Z,1012.67
2022-09-07T11:50:23.714Z,1012.65
2022-09-07T11:51:27.331Z,1012.63
2022-09-07T11:52:30.204Z,1012.63
2022-09-07T11:54:11.788Z,1012.64
2022-09-07T11:55:14.943Z,1012.64
2022-09-07T11:56:17.914Z,1012.63
2022-09-07T11:58:01.078Z,1012.62
2022-09-07T11:59:04.108Z,1012.61
2022-09-07T12:00:23.045Z,1012.53
2022-09-07T12:01:26.162Z,1012.50
2022-09-07T12:03:01.432Z,1012.50
2022-09-07T12:04:41.436Z,1012.48
2022-09-07T12:05:48.612Z,1012.50
2022-09-07T12:06:51.678Z,1012.49
2022-09-07T12:08:27.064Z,1012.48
2022-09-07T12:09:30.248Z,1012.49
2022-09-07T12:10:33.439Z,1012.50
2022-09-07T12:12:14.279Z,1012.49
2022-09-07T12:13:17.556Z,1012.47
2022-09-07T12:14:20.747Z,1012.49
2022-09-07T12:15:56.143Z,1012.48
2022-09-07T12:16:59.459Z,1012.48
2022-09-07T12:18:02.331Z,1012.47
2022-09-07T12:19:37.300Z,1012.48
2022-09-07T12:20:40.357Z,1012.45
2022-09-07T12:21:43.431Z,1012.48
2022-09-07T12:23:18.537Z,1012.44
2022-09-07T12:24:21.581Z,1012.45
2022-09-07T12:25:24.702Z,1012.44
2022-09-07T12:27:00.095Z,1012.44
2022-09-07T12:28:03.040Z,1012.45
2022-09-07T12:29:11.514Z,1012.43
2022-09-07T12:30:46.685Z,1012.46
2022-09-07T12:32:53.241Z,1012.41
2022-09-07T12:33:57.497Z,1012.41
2022-09-07T12:35:32.326Z,1012.38
2022-09-07T12:36:35.229Z,1012.41
2022-09-07T12:37:38.459Z,1012.42
2022-09-07T12:39:13.970Z,1012.38
2022-09-07T12:40:17.369Z,1012.38
2022-09-07T12:41:20.540Z,1012.38
2022-09-07T12:43:28.901Z,1012.33
2022-09-07T12:44:35.106Z,1012.35
2022-09-07T12:45:38.136Z,1012.31
2022-09-07T12:47:13.849Z,1012.30
2022-09-07T12:48:17.089Z,1012.39
2022-09-07T12:49:20.364Z,1012.37
2022-09-07T12:50:56.708Z,1012.34
2022-09-07T12:52:27.226Z,1012.28
2022-09-07T12:53:30.372Z,1012.31
2022-09-07T12:57:41.788Z,1012.27
2022-09-07T12:58:45.031Z,1012.25
2022-09-07T13:00:23.768Z,1012.26
2022-09-07T13:01:27.591Z,1012.28
2022-09-07T13:02:31.747Z,1012.25
2022-09-07T13:04:47.579Z,1012.19
2022-09-07T13:05:50.626Z,1012.15
2022-09-07T13:07:14.734Z,1012.20
2022-09-07T13:09:01.332Z,1012.14
2022-09-07T13:10:04.470Z,1012.07
2022-09-07T13:11:07.683Z,1012.10
2022-09-07T13:13:05.265Z,1012.12
2022-09-07T13:14:42.832Z,1012.05
2022-09-07T13:15:48.612Z,1012.07
2022-09-07T13:18:08.303Z,1012.03
2022-09-07T13:19:13.272Z,1012.04
2022-09-07T13:20:16.554Z,1012.02
2022-09-07T13:21:58.698Z,1011.98
2022-09-07T13:23:02.660Z,1011.94
2022-09-07T13:24:49.645Z,1011.95
2022-09-07T13:26:24.911Z,1011.91
2022-09-07T13:27:28.410Z,1011.87
2022-09-07T13:28:31.394Z,1011.87
2022-09-07T13:30:07.283Z,1011.85
2022-09-07T13:31:10.469Z,1011.81
2022-09-07T13:32:14.159Z,1011.82
2022-09-07T13:34:32.063Z,1011.85
2022-09-07T13:35:35.382Z,1011.85
2022-09-07T13:36:38.607Z,1011.85
2022-09-07T13:38:13.895Z,1011.84
2022-09-07T13:39:17.343Z,1011.86
2022-09-07T13:40:20.927Z,1011.87
2022-09-07T13:41:55.724Z,1011.82
2022-09-07T13:42:58.943Z,1011.80
2022-09-07T13:44:02.318Z,1011.83
2022-09-07T13:45:44.384Z,1011.82
2022-09-07T13:46:48.012Z,1011.79
2022-09-07T13:47:51.116Z,1011.75
2022-09-07T13:49:26.378Z,1011.73
2022-09-07T13:50:29.778Z,1011.69
2022-09-07T13:51:33.001Z,1011.72
2022-09-07T13:53:08.316Z,1011.76
2022-09-07T13:54:11.339Z,1011.77
2022-09-07T13:55:14.616Z,1011.77
2022-09-07T13:56:55.549Z,1011.75
2022-09-07T13:57:59.014Z,1011.73
2022-09-07T13:59:02.284Z,1011.71
2022-09-07T14:00:23.593Z,1011.68
2022-09-07T14:01:26.895Z,1011.68
2022-09-07T14:02:30.391Z,1011.67
2022-09-07T14:04:06.026Z,1011.63
2022-09-07T14:05:09.132Z,1011.65
2022-09-07T14:06:12.245Z,1011.65
2022-09-07T14:07:47.638Z,1011.64
2022-09-07T14:08:51.259Z,1011.67
2022-09-07T14:09:54.350Z,1011.68
2022-09-07T14:11:29.838Z,1011.67
2022-09-07T14:12:33.207Z,1011.65
2022-09-07T14:13:36.647Z,1011.66
2022-09-07T14:15:15.113Z,1011.64
2022-09-07T14:16:18.273Z,1011.64
2022-09-07T14:17:21.822Z,1011.61
2022-09-07T14:18:56.998Z,1011.60
2022-09-07T14:20:00.254Z,1011.64
2022-09-07T14:21:03.412Z,1011.63
2022-09-07T14:22:39.130Z,1011.63
2022-09-07T14:23:47.105Z,1011.61
2022-09-07T14:24:50.390Z,1011.61
2022-09-07T14:27:09.009Z,1011.63
2022-09-07T14:28:12.648Z,1011.60
2022-09-07T14:29:15.774Z,1011.57
2022-09-07T14:30:51.228Z,1011.60
2022-09-07T14:31:54.967Z,1011.58
2022-09-07T14:32:58.449Z,1011.64
2022-09-07T14:34:38.461Z,1011.61
2022-09-07T14:35:41.675Z,1011.62
2022-09-07T14:36:56.532Z,1011.68
2022-09-07T14:39:15.785Z,1011.65
2022-09-07T14:40:19.619Z,1011.64
2022-09-07T14:41:23.299Z,1011.60
2022-09-07T14:42:59.543Z,1011.59
2022-09-07T14:44:02.954Z,1011.58
2022-09-07T14:45:06.619Z,1011.57
2022-09-07T14:46:44.581Z,1011.56
2022-09-07T14:47:54.341Z,1011.55
2022-09-07T14:48:57.626Z,1011.58
2022-09-07T14:50:36.725Z,1011.53
2022-09-07T14:52:18.877Z,1011.57
2022-09-07T14:53:46.634Z,1011.51
2022-09-07T14:55:21.827Z,1011.46
2022-09-07T14:56:25.001Z,1011.45
2022-09-07T14:57:28.153Z,1011.46
2022-09-07T14:59:05.874Z,1011.43
2022-09-07T15:00:23.278Z,1011.40
2022-09-07T15:01:50.461Z,1011.35
2022-09-07T15:02:53.986Z,1011.37
2022-09-07T15:04:29.828Z,1011.35
2022-09-07T15:05:34.526Z,1011.37
2022-09-07T15:07:08.800Z,1011.36
2022-09-07T15:08:44.399Z,1011.34
2022-09-07T15:09:47.425Z,1011.30
2022-09-07T15:11:38.825Z,1011.36
2022-09-07T15:13:29.901Z,1011.37
2022-09-07T15:14:33.533Z,1011.36
2022-09-07T15:15:38.245Z,1011.35
2022-09-07T15:17:51.021Z,1011.39
2022-09-07T15:19:02.167Z,1011.40
2022-09-07T15:20:05.318Z,1011.41
2022-09-07T15:21:40.399Z,1011.40
2022-09-07T15:22:43.369Z,1011.43
2022-09-07T15:23:46.680Z,1011.40
2022-09-07T15:25:22.659Z,1011.37
2022-09-07T15:27:09.613Z,1011.39
2022-09-07T15:28:13.041Z,1011.39
2022-09-07T15:30:40.164Z,1011.37
2022-09-07T15:32:56.898Z,1011.36
2022-09-07T15:34:00.461Z,1011.31
2022-09-07T15:35:35.701Z,1011.27
2022-09-07T15:36:40.722Z,1011.29
2022-09-07T15:39:00.871Z,1011.26
2022-09-07T15:40:37.138Z,1011.24
2022-09-07T15:43:19.601Z,1011.26
2022-09-07T15:44:31.940Z,1011.32
2022-09-07T15:46:09.905Z,1011.28
2022-09-07T15:47:57.493Z,1011.27
2022-09-07T15:49:01.663Z,1011.26
2022-09-07T15:50:47.877Z,1011.28
2022-09-07T15:52:52.502Z,1011.31
2022-09-07T15:55:02.397Z,1011.27
2022-09-07T15:56:43.676Z,1011.29
2022-09-07T15:58:57.999Z,1011.32
2022-09-07T16:00:01.037Z,1011.31
2022-09-07T16:00:24.032Z,1011.31
2022-09-07T16:01:58.774Z,1011.27
2022-09-07T16:04:04.656Z,1011.25
2022-09-07T16:05:53.303Z,1011.26